Norah Lynn — WDC9929 — position and weather

sailwx.info

Track history (hours):
 
Tides and Currents Weather Stations Pressure Air Temp Water Temp Dewpoint Dewpoint Depression Visibility Wind Speed Wind Dir Waves Ship Positions

Norah Lynn

Owner: Norah Lynn Marine, LLC, Golden Meadow, LA. More information available from US FCC via Universal Licensing System and Coast Guard Vessel Documentation Center.

Last reported at 2014-Jul-19 07:33 UTC. Time now 2014-Oct-01 14:24 UTC.
Position N 29°33' W 090°26'.
Warning: this ship's position is months out of date.

Length 35 m.

MMSI: 367108620.

Date/timePositionNaut miles runAvg speedWind from/ knotsBaromVisibWave heightAir tempDewpointWater temp
2014-Jul-19 07:33N 29°33' W 090°26'5 5.3
2014-Jul-19 06:34N 29°34' W 090°32'5 4.8
2014-Jul-19 05:33N 29°35' W 090°37'21 3.3
2014-Jul-18 23:15N 29°37' W 091°01'4 5.3
2014-Jul-18 22:33N 29°38' W 091°05'4 4.3
2014-Jul-18 21:33N 29°41' W 091°09'2 2.0
2014-Jul-18 20:33N 29°41' W 091°11'2 2.1
2014-Jul-18 19:34N 29°40' W 091°13'2 2.3
2014-Jul-18 18:34N 29°39' W 091°16'2 1.7
2014-Jul-18 17:34N 29°39' W 091°18'  
2014-Jul-16 11:04N 29°37' W 094°57'6 7.0
2014-Jul-16 10:14N 29°42' W 095°00'5 6.4
2014-Jul-16 09:27N 29°46' W 095°04'1 1.4
2014-Jul-16 08:28N 29°47' W 095°05'0 0.0
2014-Jul-16 07:33N 29°47' W 095°05'0 0.0
2014-Jul-16 06:30N 29°47' W 095°05'0 0.0
2014-Jul-16 05:33N 29°47' W 095°05'0 0.0
2014-Jul-16 04:33N 29°47' W 095°05'0 0.0
2014-Jul-16 03:33N 29°47' W 095°05'0 0.0
2014-Jul-16 02:33N 29°47' W 095°05'0 0.0
2014-Jul-16 01:33N 29°47' W 095°05'0 0.0
2014-Jul-16 00:32N 29°47' W 095°05'0 0.0
2014-Jul-15 23:30N 29°47' W 095°05'0 0.0
2014-Jul-15 22:31N 29°47' W 095°05'0 0.0
2014-Jul-15 21:32N 29°47' W 095°05'0 0.0
2014-Jul-15 20:19N 29°47' W 095°05'0 0.0
2014-Jul-15 19:33N 29°47' W 095°05'1 0.7
2014-Jul-15 18:33N 29°47' W 095°04'2 2.1
2014-Jul-15 17:33N 29°46' W 095°06'0 0.0
2014-Jul-15 16:29N 29°46' W 095°06'0 0.2
2014-Jul-15 15:33N 29°46' W 095°05'2 2.0
2014-Jul-15 14:33N 29°44' W 095°07'0 0.2
2014-Jul-15 13:33N 29°44' W 095°07'4 3.6
2014-Jul-15 12:33N 29°47' W 095°04'3 3.0
2014-Jul-15 11:32N 29°45' W 095°06'0 0.0
2014-Jul-15 10:33N 29°45' W 095°06'0 0.0
2014-Jul-15 09:32N 29°45' W 095°06'0 0.0
2014-Jul-15 08:33N 29°45' W 095°06'0 0.0
2014-Jul-15 07:33N 29°45' W 095°06'0 0.0
2014-Jul-15 06:33N 29°45' W 095°06'0 0.0
2014-Jul-15 05:33N 29°45' W 095°06'0 0.0
2014-Jul-15 02:29N 29°45' W 095°06'1 1.4
2014-Jul-15 01:33N 29°46' W 095°06'1 0.4
2014-Jul-14 23:20N 29°46' W 095°06'3 3.7
2014-Jul-14 22:33N 29°44' W 095°08'4 4.4
2014-Jul-14 21:33N 29°44' W 095°03'6 6.1
2014-Jul-14 20:33N 29°40' W 094°58'7 7.3
2014-Jul-14 19:33N 29°33' W 094°54'183 4.7
2014-Jul-13 04:22N 29°39' W 091°24'6 7.1
2014-Jul-13 03:33N 29°39' W 091°17'6 6.4
2014-Jul-13 02:34N 29°41' W 091°10'4 3.5
2014-Jul-13 01:34N 29°39' W 091°07'29 2.9
2014-Jul-12 15:33N 29°34' W 090°34'  
Track history (hours):
 
Tides and Currents Weather Stations Pressure Air Temp Water Temp Dewpoint Dewpoint Depression Visibility Wind Speed Wind Dir Waves Ship Positions

Norah Lynn

Owner: Norah Lynn Marine, LLC, Golden Meadow, LA. More information available from US FCC via Universal Licensing System and Coast Guard Vessel Documentation Center.

Last reported at 2014-Jul-19 07:33 UTC. Time now 2014-Oct-01 14:24 UTC.
Position N 29°33' W 090°26'.
Warning: this ship's position is months out of date.

Length 35 m.

MMSI: 367108620.

Date/timePositionNaut miles runAvg speedWind from/ knotsBaromVisibWave heightAir tempDewpointWater temp
2014-Jul-19 07:33N 29°33' W 090°26'5 5.3
2014-Jul-19 06:34N 29°34' W 090°32'5 4.8
2014-Jul-19 05:33N 29°35' W 090°37'21 3.3
2014-Jul-18 23:15N 29°37' W 091°01'4 5.3
2014-Jul-18 22:33N 29°38' W 091°05'4 4.3
2014-Jul-18 21:33N 29°41' W 091°09'2 2.0
2014-Jul-18 20:33N 29°41' W 091°11'2 2.1
2014-Jul-18 19:34N 29°40' W 091°13'2 2.3
2014-Jul-18 18:34N 29°39' W 091°16'2 1.7
2014-Jul-18 17:34N 29°39' W 091°18'  
2014-Jul-16 11:04N 29°37' W 094°57'6 7.0
2014-Jul-16 10:14N 29°42' W 095°00'5 6.4
2014-Jul-16 09:27N 29°46' W 095°04'1 1.4
2014-Jul-16 08:28N 29°47' W 095°05'0 0.0
2014-Jul-16 07:33N 29°47' W 095°05'0 0.0
2014-Jul-16 06:30N 29°47' W 095°05'0 0.0
2014-Jul-16 05:33N 29°47' W 095°05'0 0.0
2014-Jul-16 04:33N 29°47' W 095°05'0 0.0
2014-Jul-16 03:33N 29°47' W 095°05'0 0.0
2014-Jul-16 02:33N 29°47' W 095°05'0 0.0
2014-Jul-16 01:33N 29°47' W 095°05'0 0.0
2014-Jul-16 00:32N 29°47' W 095°05'0 0.0
2014-Jul-15 23:30N 29°47' W 095°05'0 0.0
2014-Jul-15 22:31N 29°47' W 095°05'0 0.0
2014-Jul-15 21:32N 29°47' W 095°05'0 0.0
2014-Jul-15 20:19N 29°47' W 095°05'0 0.0
2014-Jul-15 19:33N 29°47' W 095°05'1 0.7
2014-Jul-15 18:33N 29°47' W 095°04'2 2.1
2014-Jul-15 17:33N 29°46' W 095°06'0 0.0
2014-Jul-15 16:29N 29°46' W 095°06'0 0.2
2014-Jul-15 15:33N 29°46' W 095°05'2 2.0
2014-Jul-15 14:33N 29°44' W 095°07'0 0.2
2014-Jul-15 13:33N 29°44' W 095°07'4 3.6
2014-Jul-15 12:33N 29°47' W 095°04'3 3.0
2014-Jul-15 11:32N 29°45' W 095°06'0 0.0
2014-Jul-15 10:33N 29°45' W 095°06'0 0.0
2014-Jul-15 09:32N 29°45' W 095°06'0 0.0
2014-Jul-15 08:33N 29°45' W 095°06'0 0.0
2014-Jul-15 07:33N 29°45' W 095°06'0 0.0
2014-Jul-15 06:33N 29°45' W 095°06'0 0.0
2014-Jul-15 05:33N 29°45' W 095°06'0 0.0
2014-Jul-15 02:29N 29°45' W 095°06'1 1.4
2014-Jul-15 01:33N 29°46' W 095°06'1 0.4
2014-Jul-14 23:20N 29°46' W 095°06'3 3.7
2014-Jul-14 22:33N 29°44' W 095°08'4 4.4
2014-Jul-14 21:33N 29°44' W 095°03'6 6.1
2014-Jul-14 20:33N 29°40' W 094°58'7 7.3
2014-Jul-14 19:33N 29°33' W 094°54'183 4.7
2014-Jul-13 04:22N 29°39' W 091°24'6 7.1
2014-Jul-13 03:33N 29°39' W 091°17'6 6.4
2014-Jul-13 02:34N 29°41' W 091°10'4 3.5
2014-Jul-13 01:34N 29°39' W 091°07'29 2.9
2014-Jul-12 15:33N 29°34' W 090°34'  

Dump ship's entire track history